createdAt,value
2019-03-11T00:01:44.391Z,1.70
2019-03-11T00:04:19.475Z,2.60
2019-03-11T00:06:51.940Z,3.60
2019-03-11T00:09:24.917Z,2.33
2019-03-11T00:11:57.934Z,2.27
2019-03-11T00:14:31.110Z,3.73
2019-03-11T00:17:03.813Z,2.53
2019-03-11T00:19:37.449Z,2.70
2019-03-11T00:22:10.599Z,4.17
2019-03-11T00:24:43.655Z,3.40
2019-03-11T00:27:16.353Z,4.33
2019-03-11T00:29:49.851Z,3.83
2019-03-11T00:32:23.027Z,1.83
2019-03-11T00:34:55.899Z,3.73
2019-03-11T00:37:30.008Z,4.13
2019-03-11T00:40:05.129Z,4.30
2019-03-11T00:42:38.378Z,4.30
2019-03-11T00:45:12.681Z,2.33
2019-03-11T00:47:45.526Z,3.00
2019-03-11T00:50:20.126Z,2.90
2019-03-11T00:52:51.980Z,4.40
2019-03-11T00:55:24.849Z,2.77
2019-03-11T00:57:57.280Z,4.73
2019-03-11T01:00:31.947Z,5.83
2019-03-11T01:03:07.298Z,5.53
2019-03-11T01:05:39.167Z,3.77
2019-03-11T01:08:12.734Z,2.47
2019-03-11T01:10:46.858Z,4.37
2019-03-11T01:13:20.200Z,2.60
2019-03-11T01:15:52.626Z,5.40
2019-03-11T01:18:26.344Z,3.33
2019-03-11T01:20:59.970Z,2.87
2019-03-11T01:23:35.156Z,4.83
2019-03-11T01:26:08.203Z,4.50
2019-03-11T01:28:40.555Z,2.57
2019-03-11T01:31:14.791Z,4.37
2019-03-11T01:33:47.810Z,3.13
2019-03-11T01:36:24.047Z,4.47
2019-03-11T01:38:57.140Z,6.37
2019-03-11T01:41:29.650Z,4.10
2019-03-11T01:44:01.561Z,4.40
2019-03-11T01:46:34.710Z,4.43
2019-03-11T01:49:09.046Z,4.60
2019-03-11T01:51:42.182Z,3.60
2019-03-11T01:54:15.219Z,2.40
2019-03-11T01:56:48.819Z,4.77
2019-03-11T01:59:21.624Z,4.37
2019-03-11T02:01:54.869Z,2.67
2019-03-11T02:04:26.762Z,2.67
2019-03-11T02:06:59.682Z,5.27
2019-03-11T02:09:34.320Z,3.47
2019-03-11T02:12:07.884Z,2.40
2019-03-11T02:14:40.276Z,2.93
2019-03-11T02:17:12.229Z,3.57
2019-03-11T02:19:45.138Z,4.00
2019-03-11T02:22:18.323Z,3.33
2019-03-11T02:24:51.229Z,5.00
2019-03-11T02:27:25.754Z,5.03
2019-03-11T02:30:00.476Z,4.33
2019-03-11T02:32:34.980Z,7.20
2019-03-11T02:35:08.415Z,7.13
2019-03-11T02:37:42.597Z,9.40
2019-03-11T02:40:16.314Z,6.70
2019-03-11T02:42:49.383Z,9.13
2019-03-11T02:45:24.373Z,14.80
2019-03-11T02:47:59.053Z,9.07
2019-03-11T02:50:32.138Z,8.77
2019-03-11T02:53:07.290Z,9.70
2019-03-11T02:55:39.112Z,12.10
2019-03-11T02:58:12.039Z,11.63
2019-03-11T03:00:45.956Z,8.47
2019-03-11T03:03:41.761Z,13.53
2019-03-11T03:06:16.926Z,7.80
2019-03-11T03:08:49.395Z,9.57
2019-03-11T03:11:21.867Z,11.77
2019-03-11T03:13:56.273Z,16.07
2019-03-11T03:16:30.115Z,14.37
2019-03-11T03:19:02.507Z,8.57
2019-03-11T03:21:34.509Z,8.03
2019-03-11T03:24:07.631Z,7.07
2019-03-11T03:26:41.097Z,9.97
2019-03-11T03:29:15.302Z,14.17
2019-03-11T03:31:49.538Z,9.63
2019-03-11T03:34:23.046Z,11.90
2019-03-11T03:36:56.242Z,6.00
2019-03-11T03:39:29.437Z,10.70
2019-03-11T03:42:05.037Z,11.57
2019-03-11T03:44:41.590Z,11.60
2019-03-11T03:47:13.395Z,8.67
2019-03-11T03:49:45.595Z,9.60
2019-03-11T03:52:18.073Z,15.77
2019-03-11T03:54:52.313Z,13.23
2019-03-11T03:57:25.403Z,8.33
2019-03-11T03:59:58.772Z,10.93
2019-03-11T04:02:30.942Z,10.43
2019-03-11T04:05:03.280Z,7.10
2019-03-11T04:07:36.752Z,8.17
2019-03-11T04:10:09.917Z,11.57
2019-03-11T04:12:42.021Z,13.90
2019-03-11T04:15:15.257Z,10.70
2019-03-11T04:17:47.432Z,14.07
2019-03-11T04:20:20.414Z,9.40
2019-03-11T04:22:52.563Z,13.13
2019-03-11T04:25:24.642Z,7.73
2019-03-11T04:27:57.083Z,11.57
2019-03-11T04:30:29.781Z,6.83
2019-03-11T04:33:03.891Z,10.37
2019-03-11T04:35:37.172Z,9.40
2019-03-11T04:38:09.241Z,9.03
2019-03-11T04:40:41.693Z,9.73
2019-03-11T04:43:14.138Z,8.97
2019-03-11T04:45:46.214Z,10.53
2019-03-11T04:48:24.176Z,9.03
2019-03-11T04:50:56.823Z,9.90
2019-03-11T04:53:28.746Z,12.57
2019-03-11T04:56:00.882Z,9.93
2019-03-11T04:58:34.254Z,9.77
2019-03-11T05:01:06.395Z,9.50
2019-03-11T05:03:38.480Z,9.20
2019-03-11T05:06:11.354Z,10.20
2019-03-11T05:08:44.012Z,14.17
2019-03-11T05:11:17.008Z,10.57
2019-03-11T05:13:50.354Z,11.33
2019-03-11T05:16:22.499Z,12.33
2019-03-11T05:18:54.719Z,11.57
2019-03-11T05:21:26.901Z,12.80
2019-03-11T05:23:59.590Z,12.13
2019-03-11T05:26:32.062Z,8.67
2019-03-11T05:29:04.264Z,12.10
2019-03-11T05:31:36.367Z,14.47
2019-03-11T05:34:09.353Z,12.47
2019-03-11T05:36:41.652Z,9.80
2019-03-11T05:39:15.649Z,8.77
2019-03-11T05:41:48.870Z,15.17
2019-03-11T05:44:21.982Z,9.67
2019-03-11T05:46:54.299Z,10.77
2019-03-11T05:49:27.435Z,8.53
2019-03-11T05:51:59.594Z,15.50
2019-03-11T05:54:31.683Z,5.87
2019-03-11T05:57:03.710Z,10.77
2019-03-11T05:59:36.428Z,14.83
2019-03-11T06:02:09.636Z,8.33
2019-03-11T06:04:41.786Z,7.90
2019-03-11T06:07:15.079Z,12.60
2019-03-11T06:09:47.218Z,10.37
2019-03-11T06:12:19.343Z,10.20
2019-03-11T06:14:52.476Z,11.10
2019-03-11T06:17:25.426Z,11.40
2019-03-11T06:20:16.951Z,13.13
2019-03-11T06:22:50.135Z,9.17
2019-03-11T06:25:22.308Z,10.10
2019-03-11T06:27:55.350Z,8.80
2019-03-11T06:30:29.181Z,9.33
2019-03-11T06:33:01.103Z,6.63
2019-03-11T06:35:34.572Z,6.70
2019-03-11T06:38:06.545Z,8.33
2019-03-11T06:40:40.523Z,7.97
2019-03-11T06:43:12.471Z,8.37
2019-03-11T06:45:44.591Z,6.97
2019-03-11T06:48:26.524Z,6.73
2019-03-11T06:50:58.519Z,9.67
2019-03-11T06:53:30.691Z,6.57
2019-03-11T06:56:03.264Z,9.70
2019-03-11T06:58:36.887Z,5.93
2019-03-11T07:01:08.974Z,4.47
2019-03-11T07:03:41.965Z,5.03
2019-03-11T07:06:15.426Z,5.80
2019-03-11T07:08:49.845Z,2.57
2019-03-11T07:11:22.451Z,1.53
2019-03-11T07:13:56.360Z,3.63
2019-03-11T07:16:30.879Z,3.30
2019-03-11T07:19:03.131Z,1.33
2019-03-11T07:21:35.924Z,4.40
2019-03-11T07:24:07.851Z,3.73
2019-03-11T07:26:40.350Z,2.13
2019-03-11T07:29:13.758Z,6.00
2019-03-11T07:31:46.455Z,1.60
2019-03-11T07:34:18.467Z,1.20
2019-03-11T07:36:50.460Z,1.23
2019-03-11T07:39:22.554Z,0.90
2019-03-11T07:41:54.650Z,0.80
2019-03-11T07:44:28.045Z,1.23
2019-03-11T07:47:00.087Z,0.80
2019-03-11T07:49:33.566Z,0.77
2019-03-11T07:52:05.889Z,2.07
2019-03-11T07:54:38.920Z,0.73
2019-03-11T07:57:11.984Z,1.10
2019-03-11T07:59:44.189Z,0.93
2019-03-11T08:02:18.293Z,2.33
2019-03-11T08:04:51.682Z,1.73
2019-03-11T08:07:23.742Z,0.63
2019-03-11T08:09:56.797Z,0.97
2019-03-11T08:12:29.013Z,2.70
2019-03-11T08:15:04.046Z,1.20
2019-03-11T08:17:37.297Z,0.80
2019-03-11T08:20:10.559Z,1.03
2019-03-11T08:22:42.784Z,2.10
2019-03-11T08:25:16.377Z,1.70
2019-03-11T08:27:49.401Z,0.93
2019-03-11T08:30:23.828Z,2.03
2019-03-11T08:32:56.063Z,1.33
2019-03-11T08:35:29.678Z,0.70
2019-03-11T08:38:05.197Z,3.03
2019-03-11T08:40:37.739Z,1.30
2019-03-11T08:43:11.954Z,1.20
2019-03-11T08:45:45.058Z,4.70
2019-03-11T08:48:18.581Z,0.77
2019-03-11T08:50:51.321Z,1.10
2019-03-11T08:53:23.462Z,3.53
2019-03-11T08:55:55.989Z,1.27
2019-03-11T08:58:28.546Z,3.93
2019-03-11T09:01:02.147Z,1.77
2019-03-11T09:03:36.163Z,1.30
2019-03-11T09:06:08.296Z,0.70
2019-03-11T09:08:42.000Z,1.60
2019-03-11T09:11:16.107Z,1.30
2019-03-11T09:13:48.155Z,0.80
2019-03-11T09:16:21.722Z,2.97
2019-03-11T09:18:53.941Z,1.67
2019-03-11T09:21:26.333Z,1.57
2019-03-11T09:23:59.216Z,2.40
2019-03-11T09:26:32.352Z,1.20
2019-03-11T09:29:06.240Z,1.87
2019-03-11T09:31:39.659Z,3.70
2019-03-11T09:34:11.854Z,2.83
2019-03-11T09:36:44.303Z,1.73
2019-03-11T09:39:16.650Z,1.83
2019-03-11T09:41:48.721Z,3.40
2019-03-11T09:44:22.421Z,5.30
2019-03-11T09:46:56.636Z,4.37
2019-03-11T09:49:29.157Z,2.53
2019-03-11T09:52:02.090Z,2.83
2019-03-11T09:54:35.976Z,2.83
2019-03-11T09:57:08.798Z,2.43
2019-03-11T09:59:40.696Z,2.93
2019-03-11T10:02:13.223Z,3.30
2019-03-11T10:04:45.111Z,5.23
2019-03-11T10:07:17.987Z,6.17
2019-03-11T10:09:50.411Z,2.20
2019-03-11T10:12:22.299Z,4.40
2019-03-11T10:14:54.690Z,2.47
2019-03-11T10:17:26.658Z,3.93
2019-03-11T10:19:59.302Z,1.83
2019-03-11T10:22:31.636Z,2.87
2019-03-11T10:25:04.597Z,2.50
2019-03-11T10:27:36.466Z,5.00
2019-03-11T10:30:10.302Z,2.47
2019-03-11T10:32:43.539Z,3.40
2019-03-11T10:35:30.815Z,3.50
2019-03-11T10:37:49.982Z,2.73
2019-03-11T10:40:22.488Z,4.17
2019-03-11T10:42:55.090Z,2.63
2019-03-11T10:45:31.768Z,4.77
2019-03-11T10:48:00.997Z,3.00
2019-03-11T10:50:32.897Z,2.37
2019-03-11T10:53:04.816Z,3.87
2019-03-11T10:55:37.110Z,3.80
2019-03-11T10:58:10.160Z,4.63
2019-03-11T11:00:42.569Z,4.23
2019-03-11T11:03:14.402Z,3.90
2019-03-11T11:05:47.350Z,3.50
2019-03-11T11:08:20.263Z,4.37
2019-03-11T11:10:52.131Z,6.23
2019-03-11T11:13:24.554Z,4.60
2019-03-11T11:15:56.452Z,2.30
2019-03-11T11:18:29.490Z,2.70
2019-03-11T11:21:01.474Z,4.80
2019-03-11T11:23:33.902Z,3.80
2019-03-11T11:26:06.381Z,3.07
2019-03-11T11:28:38.264Z,4.47
2019-03-11T11:31:11.163Z,3.30
2019-03-11T11:33:43.084Z,4.03
2019-03-11T11:36:15.988Z,3.00
2019-03-11T11:38:48.342Z,3.50
2019-03-11T11:41:21.527Z,2.77
2019-03-11T11:43:54.309Z,4.27
2019-03-11T11:46:26.779Z,3.60
2019-03-11T11:48:59.129Z,5.93
2019-03-11T11:51:31.431Z,6.63
2019-03-11T11:54:03.843Z,3.30
2019-03-11T11:56:36.177Z,3.60
2019-03-11T11:59:08.570Z,1.93
2019-03-11T12:01:40.545Z,3.27
2019-03-11T12:04:14.000Z,2.00
2019-03-11T12:06:45.949Z,3.43
2019-03-11T12:09:17.826Z,3.87
2019-03-11T12:11:50.307Z,4.23
2019-03-11T12:14:22.217Z,2.77
2019-03-11T12:16:54.157Z,3.83
2019-03-11T12:19:27.096Z,2.83
2019-03-11T12:21:59.315Z,1.93
2019-03-11T12:24:31.390Z,5.83
2019-03-11T12:27:03.245Z,3.87
2019-03-11T12:29:35.699Z,4.47
2019-03-11T12:32:07.780Z,5.53
2019-03-11T12:34:39.677Z,2.53
2019-03-11T12:37:12.360Z,2.03
2019-03-11T12:39:44.798Z,2.80
2019-03-11T12:42:17.128Z,2.87
2019-03-11T12:44:49.532Z,2.30
2019-03-11T12:47:22.474Z,3.60
2019-03-11T12:49:54.316Z,3.63
2019-03-11T12:52:26.243Z,3.57
2019-03-11T12:54:58.475Z,5.93
2019-03-11T12:57:30.878Z,1.87
2019-03-11T13:00:03.291Z,2.67
2019-03-11T13:02:36.315Z,4.50
2019-03-11T13:05:09.235Z,3.53
2019-03-11T13:07:41.118Z,2.83
2019-03-11T13:10:15.261Z,2.27
2019-03-11T13:12:47.708Z,1.27
2019-03-11T13:15:20.436Z,1.40
2019-03-11T13:17:52.472Z,1.27
2019-03-11T13:20:30.752Z,3.43
2019-03-11T13:23:02.766Z,1.27
2019-03-11T13:25:35.287Z,2.77
2019-03-11T13:28:07.196Z,2.77
2019-03-11T13:30:40.140Z,1.80
2019-03-11T13:33:12.451Z,6.17
2019-03-11T13:35:44.850Z,3.17
2019-03-11T13:38:17.247Z,6.50
2019-03-11T13:40:49.614Z,4.80
2019-03-11T13:43:21.910Z,9.40
2019-03-11T13:45:53.935Z,2.00
2019-03-11T13:48:27.409Z,1.10
2019-03-11T13:50:59.746Z,2.17
2019-03-11T13:53:31.668Z,2.00
2019-03-11T13:56:04.702Z,2.80
2019-03-11T13:58:36.896Z,3.23
2019-03-11T14:01:09.051Z,2.53
2019-03-11T14:03:41.787Z,1.40
2019-03-11T14:06:14.687Z,2.77
2019-03-11T14:08:47.112Z,1.13
2019-03-11T14:11:19.050Z,2.83
2019-03-11T14:13:51.607Z,2.30
2019-03-11T14:16:23.496Z,2.73
2019-03-11T14:18:55.364Z,4.47
2019-03-11T14:21:27.658Z,5.50
2019-03-11T14:23:59.616Z,3.63
2019-03-11T14:26:31.536Z,3.30
2019-03-11T14:29:04.550Z,3.33
2019-03-11T14:31:37.464Z,3.67
2019-03-11T14:34:10.000Z,2.47
2019-03-11T14:36:42.924Z,2.30
2019-03-11T14:39:14.754Z,3.63
2019-03-11T14:41:47.194Z,3.47
2019-03-11T14:44:19.091Z,2.67
2019-03-11T14:46:51.626Z,4.70
2019-03-11T14:49:23.675Z,1.87
2019-03-11T14:51:55.608Z,4.37
2019-03-11T14:54:27.867Z,4.67
2019-03-11T14:57:00.732Z,4.00
2019-03-11T14:59:32.669Z,1.97
2019-03-11T15:02:06.609Z,2.20
2019-03-11T15:04:39.571Z,3.67
2019-03-11T15:07:12.528Z,3.53
2019-03-11T15:09:51.341Z,1.90
2019-03-11T15:12:18.796Z,3.37
2019-03-11T15:14:51.989Z,4.13
2019-03-11T15:17:23.917Z,2.73
2019-03-11T15:19:56.357Z,2.53
2019-03-11T15:22:28.282Z,2.93
2019-03-11T15:25:00.613Z,2.83
2019-03-11T15:27:32.516Z,2.77
2019-03-11T15:30:04.886Z,3.90
2019-03-11T15:32:37.640Z,4.53
2019-03-11T15:35:10.606Z,4.20
2019-03-11T15:37:42.418Z,2.30
2019-03-11T15:40:14.354Z,3.00
2019-03-11T15:42:46.372Z,2.00
2019-03-11T15:45:18.978Z,6.07
2019-03-11T15:47:51.952Z,3.37
2019-03-11T15:50:26.297Z,3.80
2019-03-11T15:52:59.252Z,2.00
2019-03-11T15:55:33.089Z,2.63
2019-03-11T15:58:05.709Z,3.47
2019-03-11T16:00:37.727Z,2.67
2019-03-11T16:03:12.798Z,3.60
2019-03-11T16:05:45.590Z,2.30
2019-03-11T16:08:19.459Z,3.63
2019-03-11T16:10:51.712Z,3.13
2019-03-11T16:13:24.421Z,4.80
2019-03-11T16:15:56.889Z,5.87
2019-03-11T16:18:29.250Z,2.50
2019-03-11T16:21:01.244Z,3.10
2019-03-11T16:23:33.403Z,3.70
2019-03-11T16:26:06.415Z,4.67
2019-03-11T16:28:47.681Z,5.87
2019-03-11T16:31:14.693Z,3.57
2019-03-11T16:33:48.397Z,3.17
2019-03-11T16:36:20.910Z,3.30
2019-03-11T16:38:54.385Z,3.47
2019-03-11T16:41:26.672Z,5.27
2019-03-11T16:43:59.368Z,4.10
2019-03-11T16:46:33.670Z,2.63
2019-03-11T16:49:06.467Z,4.20
2019-03-11T16:51:41.386Z,4.40
2019-03-11T16:54:15.137Z,4.23
2019-03-11T16:56:48.188Z,5.17
2019-03-11T16:59:21.906Z,2.60
2019-03-11T17:01:55.592Z,4.23
2019-03-11T17:04:27.762Z,4.30
2019-03-11T17:07:00.991Z,3.83
2019-03-11T17:09:36.054Z,5.57
2019-03-11T17:12:08.759Z,3.83
2019-03-11T17:14:40.863Z,5.30
2019-03-11T17:17:13.883Z,3.63
2019-03-11T17:19:47.193Z,3.63
2019-03-11T17:22:19.391Z,3.53
2019-03-11T17:24:53.945Z,3.00
2019-03-11T17:27:27.750Z,4.33
2019-03-11T17:30:01.442Z,6.13
2019-03-11T17:32:33.916Z,2.50
2019-03-11T17:35:06.672Z,5.00
2019-03-11T17:37:39.988Z,6.40
2019-03-11T17:40:13.879Z,3.33
2019-03-11T17:42:47.078Z,5.50
2019-03-11T17:45:20.960Z,5.97
2019-03-11T17:47:53.187Z,5.17
2019-03-11T17:50:25.462Z,6.00
2019-03-11T17:52:58.311Z,3.97
2019-03-11T17:55:32.113Z,4.53
2019-03-11T17:58:04.684Z,3.97
2019-03-11T18:00:38.893Z,3.73
2019-03-11T18:03:11.105Z,6.13
2019-03-11T18:05:43.577Z,3.70
2019-03-11T18:08:17.807Z,7.57
2019-03-11T18:10:51.251Z,4.50
2019-03-11T18:13:24.206Z,5.03
2019-03-11T18:15:56.238Z,4.90
2019-03-11T18:18:33.598Z,5.03
2019-03-11T18:21:07.018Z,4.73
2019-03-11T18:23:40.178Z,5.80
2019-03-11T18:26:13.286Z,6.20
2019-03-11T18:28:45.207Z,4.67
2019-03-11T18:31:18.414Z,4.73
2019-03-11T18:33:51.174Z,3.20
2019-03-11T18:36:26.119Z,3.90
2019-03-11T18:38:58.506Z,4.67
2019-03-11T18:41:30.497Z,5.03
2019-03-11T18:44:04.048Z,4.17
2019-03-11T18:46:37.414Z,4.90
2019-03-11T18:49:12.812Z,3.00
2019-03-11T18:51:45.009Z,4.70
2019-03-11T18:54:18.448Z,4.37
2019-03-11T18:56:51.348Z,3.00
2019-03-11T18:59:23.920Z,5.77
2019-03-11T19:01:56.392Z,4.43
2019-03-11T19:04:31.599Z,5.80
2019-03-11T19:07:03.525Z,2.80
2019-03-11T19:09:35.756Z,6.40
2019-03-11T19:12:09.017Z,5.10
2019-03-11T19:14:41.562Z,4.63
2019-03-11T19:17:14.856Z,4.77
2019-03-11T19:19:46.988Z,3.60
2019-03-11T19:22:19.174Z,2.70
2019-03-11T19:24:52.053Z,3.77
2019-03-11T19:27:25.168Z,6.27
2019-03-11T19:29:58.675Z,4.57
2019-03-11T19:32:31.150Z,4.77
2019-03-11T19:35:05.160Z,3.63
2019-03-11T19:37:39.993Z,4.90
2019-03-11T19:40:14.040Z,3.23
2019-03-11T19:42:47.546Z,7.40
2019-03-11T19:45:22.050Z,3.37
2019-03-11T19:47:55.281Z,5.37
2019-03-11T19:50:29.124Z,6.73
2019-03-11T19:53:03.106Z,3.87
2019-03-11T19:55:37.703Z,5.40
2019-03-11T19:58:10.156Z,4.33
2019-03-11T20:00:43.831Z,3.07
2019-03-11T20:03:26.502Z,3.93
2019-03-11T20:05:50.626Z,3.40
2019-03-11T20:08:23.606Z,4.70
2019-03-11T20:10:57.846Z,3.53
2019-03-11T20:13:29.890Z,4.27
2019-03-11T20:16:02.165Z,2.80
2019-03-11T20:18:34.267Z,6.03
2019-03-11T20:21:10.167Z,4.93
2019-03-11T20:23:43.021Z,4.93
2019-03-11T20:26:18.399Z,3.67
2019-03-11T20:28:50.507Z,5.00
2019-03-11T20:31:24.083Z,3.13
2019-03-11T20:33:57.144Z,2.57
2019-03-11T20:36:29.388Z,7.43
2019-03-11T20:39:02.961Z,2.37
2019-03-11T20:41:37.071Z,4.07
2019-03-11T20:44:11.077Z,4.47
2019-03-11T20:46:43.062Z,6.07
2019-03-11T20:49:16.714Z,2.97
2019-03-11T20:51:49.326Z,4.03
2019-03-11T20:54:23.406Z,3.80
2019-03-11T20:56:56.651Z,5.40
2019-03-11T20:59:29.412Z,5.30
2019-03-11T21:02:01.427Z,4.63
2019-03-11T21:04:34.425Z,3.57
2019-03-11T21:07:06.741Z,5.77
2019-03-11T21:09:39.220Z,4.33
2019-03-11T21:12:12.720Z,5.63
2019-03-11T21:14:45.334Z,3.43
2019-03-11T21:17:25.575Z,4.77
2019-03-11T21:19:53.566Z,5.83
2019-03-11T21:22:25.641Z,6.10
2019-03-11T21:24:59.849Z,4.77
2019-03-11T21:27:31.325Z,5.17
2019-03-11T21:30:04.759Z,5.60
2019-03-11T21:32:38.420Z,7.77
2019-03-11T21:35:10.606Z,6.33
2019-03-11T21:37:43.704Z,5.90
2019-03-11T21:40:17.039Z,5.60
2019-03-11T21:42:49.673Z,6.73
2019-03-11T21:45:33.443Z,5.53
2019-03-11T21:47:57.003Z,4.70
2019-03-11T21:50:29.116Z,6.10
2019-03-11T21:53:01.547Z,6.57
2019-03-11T21:55:34.390Z,6.27
2019-03-11T21:58:13.163Z,9.30
2019-03-11T22:00:41.358Z,8.10
2019-03-11T22:03:21.927Z,6.80
2019-03-11T22:05:53.754Z,8.20
2019-03-11T22:08:25.595Z,6.80
2019-03-11T22:10:57.610Z,7.60
2019-03-11T22:13:29.960Z,7.70
2019-03-11T22:16:02.834Z,5.77
2019-03-11T22:18:35.143Z,5.00
2019-03-11T22:21:07.418Z,6.17
2019-03-11T22:23:42.104Z,6.80
2019-03-11T22:26:13.464Z,6.63
2019-03-11T22:28:45.947Z,7.80
2019-03-11T22:31:18.264Z,6.20
2019-03-11T22:33:50.244Z,6.03
2019-03-11T22:36:22.175Z,6.87
2019-03-11T22:38:54.153Z,10.27
2019-03-11T22:41:26.021Z,6.23
2019-03-11T22:43:58.129Z,6.43
2019-03-11T22:46:30.957Z,6.17
2019-03-11T22:49:02.962Z,5.53
2019-03-11T22:51:35.305Z,9.10
2019-03-11T22:54:09.063Z,7.77
2019-03-11T22:56:41.011Z,5.47
2019-03-11T22:59:12.943Z,7.60
2019-03-11T23:01:45.405Z,6.53
2019-03-11T23:04:17.291Z,4.83
2019-03-11T23:06:49.693Z,7.27
2019-03-11T23:09:21.802Z,5.47
2019-03-11T23:11:53.675Z,7.27
2019-03-11T23:14:25.530Z,6.87
2019-03-11T23:16:57.900Z,6.50
2019-03-11T23:19:29.823Z,6.10
2019-03-11T23:22:02.294Z,7.27
2019-03-11T23:24:34.266Z,5.63
2019-03-11T23:27:06.699Z,5.97
2019-03-11T23:29:39.192Z,7.23
2019-03-11T23:32:11.169Z,7.17
2019-03-11T23:34:43.228Z,6.93
2019-03-11T23:37:18.715Z,6.87
2019-03-11T23:39:50.902Z,6.97
2019-03-11T23:42:23.213Z,6.97
2019-03-11T23:44:55.585Z,5.03
2019-03-11T23:47:27.423Z,5.33
2019-03-11T23:49:59.348Z,8.53
2019-03-11T23:52:31.204Z,5.17
2019-03-11T23:55:03.143Z,8.43
2019-03-11T23:57:35.419Z,8.90
